Etusivu
METAR-TAF:

METAR-TAF

Lentoasemat :

La Chaux-de-Fonds, Sveitsi

Leveyspiiri: 47-05-03N, Pituuspiiri: 006-47-37E, korkeus merenpinnasta: 1027 m

Tämänhetkinen sää

Tämä raportti tehtiin 42 minuuttia sitten, kello 17.50 UTC
Tuuli 2 kn eri suunnista
Lämpötila -2°C
Kosteus 93%
Ilmanpaine 1004 hPa
Näkyvyys 10 km tai enemmän
ei pilviä alle 1500 m:ssä eikä cumulonimbus-pilviä

METAR: LSGC 121750Z AUTO VRB02KT CAVOK M02/M03 Q1004

Aika: 19:32 (18:32 UTC)

Sääennuste

Tämä raportti tehtiin 4 tuntia ja 7 minuuttia sitten, kello 14.25 UTC
Ennuste voimassa 12. päivästä klo 15 UTC - 12. päivään klo 24 UTC
Tuuli 8 kn lännestä/lounaasta
Näkyvyys 10 km tai enemmän
Hajanaisia pilviä 2000 ft:n korkeudessa
Hajonneita pilviä 3000 ft:n korkeudessa

TAF: LSGC 121425Z 1215/1224 24008KT 9999 SCT020 BKN030

Säähavainnot ja -ennusteet yli 4000 lentoasemalta (METAR- ja TAF-raportit).

Käytössä olevat sääasemat on merkitty karttaan keltaisilla ja punaisilla pisteillä.

Aseta hiiri pisteen päälle nähdäksesi sääaseman nimen.

Klikkaa sitten nähdäksesi säähavainnot ja -ennusteet.

Kartan vaihtaminen: klikkaa mustalla rastilla varustettuja vihreitä pisteitä, niin voit zoomata sisään; viivalla varustettua vihreää pistettä, niin voit zoomata ulos tai vihreitä nuolia, niin pääset viereisille kartoille.


METAR-TAF: